Time;durP1;ratioP1;P1;durP2;ratioP2;P2;SDS_P1;SDS_P2;PMS_P1;PMS_P2;Temp;Humidity;BMP_temperature;BMP_pressure;BME280_temperature;BME280_humidity;BME280_pressure;Samples;Min_cycle;Max_cycle;Signal;HPM_P1;HPM_P2
2022/06/20 00:02:50;;;;;;;8.40;1.95;;;16.30;67.80;;;;;;9175445;19;20021;-66
2022/06/20 00:05:56;;;;;;;7.85;2.08;;;16.30;67.70;;;;;;9181945;19;20098;-66
2022/06/20 00:09:01;;;;;;;8.27;1.80;;;16.30;67.80;;;;;;9176526;19;20022;-65
2022/06/20 00:12:07;;;;;;;13.82;2.13;;;16.20;67.80;;;;;;9183088;19;20022;-66
2022/06/20 00:15:24;;;;;;;10.93;2.63;;;16.20;67.90;;;;;;9179437;19;20022;-66
2022/06/20 00:18:31;;;;;;;7.43;1.65;;;16.20;68.20;;;;;;9179747;19;20014;-66
2022/06/20 00:21:36;;;;;;;12.68;2.55;;;16.20;68.00;;;;;;9179574;19;20360;-66
2022/06/20 00:24:41;;;;;;;12.50;2.10;;;16.10;68.00;;;;;;9177330;19;20029;-66
2022/06/20 00:27:46;;;;;;;13.23;2.50;;;16.20;68.10;;;;;;9181740;19;20015;-65
2022/06/20 00:30:55;;;;;;;8.80;2.00;;;16.10;68.20;;;;;;9181249;19;20020;-65
2022/06/20 00:34:00;;;;;;;9.43;2.95;;;16.10;68.40;;;;;;9179756;19;20052;-65
2022/06/20 00:37:07;;;;;;;8.20;2.10;;;16.10;69.00;;;;;;9177404;19;20018;-68
2022/06/20 00:40:34;;;;;;;10.45;2.42;;;16.10;68.40;;;;;;9180618;19;20026;-65
2022/06/20 00:43:42;;;;;;;12.00;2.45;;;16.00;68.60;;;;;;9181018;19;20395;-65
2022/06/20 00:47:13;;;;;;;5.13;1.58;;;16.00;68.50;;;;;;9180141;19;20542;-65
2022/06/20 00:50:37;;;;;;;11.95;2.17;;;16.00;69.30;;;;;;9179597;19;20010;-67
2022/06/20 00:54:07;;;;;;;11.77;2.50;;;15.90;68.40;;;;;;9179948;19;20492;-65
2022/06/20 00:57:34;;;;;;;11.20;2.03;;;15.90;68.50;;;;;;9180924;19;20011;-65
2022/06/20 01:00:59;;;;;;;14.75;2.05;;;15.90;68.60;;;;;;9179487;19;20018;-65
2022/06/20 01:04:30;;;;;;;14.65;2.75;;;15.90;68.50;;;;;;9168803;19;20025;-65
2022/06/20 01:07:59;;;;;;;9.43;2.00;;;15.80;68.70;;;;;;9175495;19;20033;-65
2022/06/20 01:11:28;;;;;;;10.10;2.88;;;15.80;68.70;;;;;;9172098;19;20018;-65
2022/06/20 01:14:51;;;;;;;13.90;2.30;;;15.80;68.70;;;;;;9173646;19;20044;-65
2022/06/20 01:18:20;;;;;;;12.02;2.20;;;15.70;68.70;;;;;;9172631;19;20022;-65
2022/06/20 01:21:46;;;;;;;10.13;2.17;;;15.70;68.90;;;;;;9176436;19;20019;-65
2022/06/20 01:25:23;;;;;;;8.25;2.42;;;15.70;68.90;;;;;;9170925;19;20103;-65
2022/06/20 01:28:53;;;;;;;9.25;2.28;;;15.70;69.10;;;;;;9159987;19;20014;-65
2022/06/20 01:32:17;;;;;;;9.32;2.47;;;15.70;69.10;;;;;;9173494;19;20410;-65
2022/06/20 01:39:20;;;;;;;7.75;2.70;;;15.70;69.60;;;;;;9171528;19;20045;-65
2022/06/20 01:42:45;;;;;;;15.65;2.53;;;15.60;69.00;;;;;;9173329;19;20015;-65
2022/06/20 01:46:14;;;;;;;6.57;2.45;;;15.60;69.10;;;;;;9175183;19;20010;-65
2022/06/20 01:49:39;;;;;;;12.35;2.25;;;15.60;69.20;;;;;;9181454;19;20045;-65
2022/06/20 01:53:05;;;;;;;8.85;2.13;;;15.60;69.20;;;;;;9181058;19;20043;-65
2022/06/20 01:56:30;;;;;;;14.10;3.58;;;15.60;69.30;;;;;;9181431;19;20014;-65
2022/06/20 01:59:59;;;;;;;11.13;2.40;;;15.50;69.20;;;;;;9181585;19;20031;-65
2022/06/20 02:03:25;;;;;;;6.60;2.03;;;15.50;69.40;;;;;;9174043;19;20086;-65
2022/06/20 02:06:50;;;;;;;10.57;2.08;;;15.50;69.40;;;;;;9178296;19;20026;-65
2022/06/20 02:10:20;;;;;;;11.48;2.22;;;15.50;69.40;;;;;;9180762;19;20029;-65
2022/06/20 02:13:48;;;;;;;9.55;2.13;;;15.50;69.50;;;;;;9181215;19;20014;-65
2022/06/20 02:17:15;;;;;;;7.28;2.80;;;15.50;69.50;;;;;;9180849;19;20026;-64
2022/06/20 02:20:45;;;;;;;11.57;2.40;;;15.40;69.50;;;;;;9180037;19;20022;-65
2022/06/20 02:24:13;;;;;;;8.15;2.08;;;15.40;69.70;;;;;;9179671;19;20506;-65
2022/06/20 02:27:41;;;;;;;8.25;2.22;;;15.40;69.70;;;;;;9178505;19;20022;-65
2022/06/20 02:31:06;;;;;;;8.55;2.10;;;15.40;69.80;;;;;;9179388;19;20093;-65
2022/06/20 02:34:32;;;;;;;8.90;2.05;;;15.40;69.80;;;;;;9179059;19;20018;-66
2022/06/20 02:37:59;;;;;;;11.30;2.50;;;15.40;69.80;;;;;;9179259;19;20015;-65
2022/06/20 02:41:26;;;;;;;10.20;2.70;;;15.40;70.00;;;;;;9180766;19;20637;-66
2022/06/20 02:44:51;;;;;;;14.90;3.17;;;15.40;70.00;;;;;;9178294;19;20014;-64
2022/06/20 02:48:18;;;;;;;12.88;3.15;;;15.30;69.70;;;;;;9180545;19;20368;-65
2022/06/20 02:51:47;;;;;;;12.93;2.58;;;15.30;70.00;;;;;;9181181;19;20022;-64
2022/06/20 02:55:16;;;;;;;7.93;2.47;;;15.30;70.10;;;;;;9178598;19;20636;-64
2022/06/20 02:58:45;;;;;;;12.77;2.75;;;15.30;70.20;;;;;;9178134;19;20011;-65
2022/06/20 03:02:12;;;;;;;11.57;2.83;;;15.30;70.20;;;;;;9178606;19;20025;-64
2022/06/20 03:05:35;;;;;;;11.52;2.40;;;15.30;70.20;;;;;;9178561;19;20010;-65
2022/06/20 03:09:00;;;;;;;11.75;2.83;;;15.30;70.20;;;;;;9179140;19;20049;-65
2022/06/20 03:12:26;;;;;;;;;;;15.30;70.20;;;;;;9180548;19;20010;-65
2022/06/20 03:15:51;;;;;;;8.40;2.30;;;15.30;70.10;;;;;;9177843;19;19982;-64
2022/06/20 03:19:18;;;;;;;;;;;15.30;70.00;;;;;;9179831;19;20373;-65
2022/06/20 03:22:48;;;;;;;7.93;2.30;;;15.30;69.90;;;;;;9178057;19;19926;-66
2022/06/20 03:26:15;;;;;;;13.27;2.95;;;15.30;70.00;;;;;;9173954;19;20089;-65
2022/06/20 03:29:48;;;;;;;11.43;2.65;;;15.30;70.10;;;;;;9178800;19;20023;-66
2022/06/20 03:33:16;;;;;;;4.93;2.20;;;15.30;70.40;;;;;;9179114;19;20031;-65
2022/06/20 03:36:42;;;;;;;9.73;2.72;;;15.30;70.40;;;;;;9178058;19;20086;-65
2022/06/20 03:40:08;;;;;;;11.32;2.92;;;15.30;70.40;;;;;;9178436;19;20018;-65
2022/06/20 03:43:32;;;;;;;6.38;2.47;;;15.30;70.50;;;;;;9180012;19;20014;-65
2022/06/20 03:47:04;;;;;;;8.73;2.30;;;15.30;70.50;;;;;;9178045;19;20018;-66
2022/06/20 03:50:35;;;;;;;8.70;2.65;;;15.30;70.70;;;;;;9176207;19;21415;-65
2022/06/20 03:54:05;;;;;;;9.52;2.20;;;15.40;70.70;;;;;;9177716;19;20492;-66
2022/06/20 03:57:34;;;;;;;13.43;2.65;;;15.30;70.80;;;;;;9177863;19;20018;-66
2022/06/20 04:01:04;;;;;;;5.97;2.10;;;15.40;70.80;;;;;;9175397;19;20045;-66
2022/06/20 04:04:33;;;;;;;8.63;2.60;;;15.30;70.80;;;;;;9172893;19;20014;-66
2022/06/20 04:08:05;;;;;;;8.40;2.20;;;15.40;70.80;;;;;;9176080;19;20015;-66
2022/06/20 04:11:34;;;;;;;20.23;3.60;;;15.40;70.90;;;;;;9176111;19;20043;-66
2022/06/20 04:15:03;;;;;;;11.13;2.80;;;15.40;70.90;;;;;;9181189;19;20384;-66
2022/06/20 04:18:33;;;;;;;6.60;2.40;;;15.40;70.90;;;;;;9177518;19;20079;-66
2022/06/20 04:22:03;;;;;;;11.32;2.67;;;15.30;70.80;;;;;;9177396;19;20018;-67
2022/06/20 04:25:33;;;;;;;9.63;2.65;;;15.40;70.90;;;;;;9174001;19;20010;-66
2022/06/20 04:29:01;;;;;;;16.20;2.97;;;15.30;70.80;;;;;;9173964;19;20018;-66
2022/06/20 04:32:33;;;;;;;7.65;2.47;;;15.30;70.80;;;;;;9170789;19;20006;-65
2022/06/20 04:36:18;;;;;;;12.48;2.67;;;15.30;70.90;;;;;;9175746;19;20102;-65
2022/06/20 04:39:50;;;;;;;12.43;2.80;;;15.30;71.00;;;;;;9174974;19;20375;-65
2022/06/20 04:43:19;;;;;;;12.00;2.50;;;15.30;70.90;;;;;;9173158;19;20010;-65
2022/06/20 04:46:47;;;;;;;9.48;2.92;;;15.30;70.90;;;;;;9172940;19;20435;-65
2022/06/20 04:50:18;;;;;;;11.25;2.60;;;15.20;70.90;;;;;;9176211;19;20019;-66
2022/06/20 04:53:44;;;;;;;13.10;2.42;;;15.20;71.00;;;;;;9175377;19;20208;-65
2022/06/20 04:57:12;;;;;;;12.98;2.95;;;15.20;70.90;;;;;;9175488;19;20625;-65
2022/06/20 05:00:40;;;;;;;9.52;2.45;;;15.20;71.00;;;;;;9174058;19;20049;-65
2022/06/20 05:04:08;;;;;;;13.48;2.75;;;15.20;71.10;;;;;;9171392;19;20010;-65
2022/06/20 05:07:36;;;;;;;12.32;2.88;;;15.20;71.20;;;;;;9172716;19;20014;-65
2022/06/20 05:11:03;;;;;;;9.18;2.30;;;15.20;71.10;;;;;;9172483;19;20025;-64
2022/06/20 05:14:36;;;;;;;10.75;2.20;;;15.20;71.20;;;;;;9174478;19;20029;-65
2022/06/20 05:18:03;;;;;;;12.73;2.08;;;15.20;71.20;;;;;;9173619;19;20014;-65
2022/06/20 05:21:32;;;;;;;12.43;2.38;;;15.20;71.20;;;;;;9173534;19;20057;-66
2022/06/20 05:24:57;;;;;;;7.35;2.03;;;15.20;71.20;;;;;;9171455;19;20015;-65
2022/06/20 05:28:24;;;;;;;11.07;2.65;;;15.20;71.20;;;;;;9171896;19;20010;-66
2022/06/20 05:31:53;;;;;;;12.77;2.10;;;15.20;71.20;;;;;;9171391;19;20041;-65
2022/06/20 05:35:19;;;;;;;13.32;2.30;;;15.30;71.30;;;;;;9169509;19;20105;-65
2022/06/20 05:38:30;;;;;;;6.20;1.58;;;15.30;71.30;;;;;;9172376;19;20014;-65
2022/06/20 05:41:36;;;;;;;8.68;2.20;;;15.30;71.30;;;;;;9171069;19;20025;-65
2022/06/20 05:44:41;;;;;;;5.60;1.80;;;15.40;71.40;;;;;;9170242;19;20038;-64
2022/06/20 05:47:53;;;;;;;8.00;2.67;;;15.50;71.50;;;;;;9171285;19;20029;-65
2022/06/20 05:51:01;;;;;;;11.07;1.90;;;15.50;71.60;;;;;;9170851;19;20011;-65
2022/06/20 05:54:12;;;;;;;10.57;1.70;;;15.70;71.40;;;;;;9171549;19;20019;-65
2022/06/20 05:57:24;;;;;;;10.65;2.67;;;15.80;71.30;;;;;;9176588;19;20014;-65
2022/06/20 06:00:33;;;;;;;8.73;2.35;;;15.90;71.20;;;;;;9176696;19;20026;-65
2022/06/20 06:03:46;;;;;;;8.63;2.10;;;16.00;71.10;;;;;;9171272;19;20400;-65
2022/06/20 06:06:58;;;;;;;7.30;2.13;;;16.20;71.00;;;;;;9171468;19;20103;-66
2022/06/20 06:10:24;;;;;;;14.02;1.88;;;16.30;70.90;;;;;;9174599;19;20074;-66
2022/06/20 06:13:36;;;;;;;7.65;2.17;;;16.50;71.00;;;;;;9170479;19;20485;-66
2022/06/20 06:16:52;;;;;;;15.98;3.03;;;16.60;70.80;;;;;;9167643;19;20790;-66
2022/06/20 06:20:03;;;;;;;6.18;1.85;;;16.80;70.70;;;;;;9163599;19;20429;-65
2022/06/20 06:23:15;;;;;;;10.73;1.73;;;16.90;70.50;;;;;;9165825;19;20064;-66
2022/06/20 06:26:24;;;;;;;6.15;1.77;;;17.10;70.20;;;;;;9158462;19;20018;-66
2022/06/20 06:29:32;;;;;;;7.53;2.30;;;17.20;70.00;;;;;;9164084;19;20011;-66
2022/06/20 06:32:43;;;;;;;9.38;2.40;;;17.40;70.00;;;;;;9163401;19;20034;-68
2022/06/20 06:36:00;;;;;;;8.23;2.10;;;17.50;69.60;;;;;;9175274;19;20106;-65
2022/06/20 06:39:14;;;;;;;13.13;2.08;;;17.60;69.40;;;;;;9177389;19;20024;-64
2022/06/20 06:42:20;;;;;;;5.65;1.67;;;17.70;69.30;;;;;;9180453;19;20019;-64
2022/06/20 06:45:31;;;;;;;9.85;2.17;;;17.90;69.30;;;;;;9173881;19;20351;-65
2022/06/20 06:48:48;;;;;;;14.40;2.20;;;18.10;69.00;;;;;;9172031;19;20389;-65
2022/06/20 06:52:02;;;;;;;14.38;2.83;;;18.20;68.70;;;;;;9178310;19;20026;-66
2022/06/20 06:55:20;;;;;;;;;;;18.40;68.60;;;;;;9182051;19;20018;-67
2022/06/20 06:58:35;;;;;;;8.18;1.83;;;18.50;68.50;;;;;;9172875;19;20030;-65
2022/06/20 07:01:45;;;;;;;7.55;1.88;;;18.70;68.40;;;;;;9176148;19;20022;-63
2022/06/20 07:04:54;;;;;;;7.95;2.20;;;18.80;68.20;;;;;;9167888;19;20033;-64
2022/06/20 07:08:06;;;;;;;12.18;2.25;;;18.90;68.10;;;;;;9170865;19;20033;-65
2022/06/20 07:11:24;;;;;;;10.60;2.95;;;19.10;67.90;;;;;;9172790;19;20045;-62
2022/06/20 07:14:32;;;;;;;10.50;1.90;;;19.20;67.50;;;;;;9178818;19;20446;-64
2022/06/20 07:17:43;;;;;;;8.63;1.88;;;19.40;67.20;;;;;;9175772;19;20025;-67
2022/06/20 07:20:54;;;;;;;9.40;2.20;;;19.40;66.80;;;;;;9172628;19;20022;-65
2022/06/20 07:24:07;;;;;;;4.18;1.70;;;19.60;66.60;;;;;;9172735;19;20923;-66
2022/06/20 07:27:18;;;;;;;7.00;1.75;;;19.60;66.20;;;;;;9170138;19;20618;-66
2022/06/20 07:30:29;;;;;;;5.45;2.33;;;19.70;66.10;;;;;;9173595;19;20340;-66
2022/06/20 07:33:39;;;;;;;6.10;1.88;;;19.80;66.60;;;;;;9174374;19;20037;-64
2022/06/20 07:36:49;;;;;;;6.10;1.90;;;19.90;65.80;;;;;;9172409;19;20011;-65
2022/06/20 07:40:02;;;;;;;5.15;1.48;;;20.00;65.40;;;;;;9172534;19;20058;-67
2022/06/20 07:43:14;;;;;;;8.13;2.22;;;20.10;65.00;;;;;;9174405;19;20023;-65
2022/06/20 07:46:28;;;;;;;7.30;2.30;;;20.20;64.90;;;;;;9173093;19;20014;-66
2022/06/20 07:49:41;;;;;;;8.65;2.10;;;20.30;64.60;;;;;;9171928;19;20049;-66
2022/06/20 07:52:54;;;;;;;8.25;2.63;;;20.30;64.40;;;;;;9176214;19;20041;-65
2022/06/20 07:56:06;;;;;;;5.95;1.77;;;20.40;64.20;;;;;;9177681;19;20584;-66
2022/06/20 07:59:15;;;;;;;8.95;1.70;;;20.40;64.00;;;;;;9176997;19;20015;-65
2022/06/20 08:02:30;;;;;;;15.52;2.65;;;20.50;63.90;;;;;;9178591;19;20674;-66
2022/06/20 08:05:44;;;;;;;12.27;2.50;;;20.60;63.50;;;;;;9175695;19;20019;-64
2022/06/20 08:08:52;;;;;;;11.55;2.30;;;20.70;63.50;;;;;;9175982;19;20480;-64
2022/06/20 08:12:05;;;;;;;7.63;2.10;;;20.80;63.10;;;;;;9166220;19;20026;-65
2022/06/20 08:15:19;;;;;;;8.25;2.33;;;20.80;62.80;;;;;;9176101;19;20583;-64
2022/06/20 08:18:31;;;;;;;7.35;1.70;;;20.90;62.80;;;;;;9173435;19;20025;-64
2022/06/20 08:21:40;;;;;;;7.88;2.22;;;21.00;62.40;;;;;;9174204;19;20018;-66
2022/06/20 08:24:53;;;;;;;4.97;1.63;;;21.10;62.20;;;;;;9177942;19;20022;-65
2022/06/20 08:28:09;;;;;;;8.23;1.98;;;21.20;62.10;;;;;;9173809;19;20022;-67
2022/06/20 08:31:22;;;;;;;10.85;2.10;;;21.30;62.00;;;;;;9181045;19;20047;-66
2022/06/20 08:34:34;;;;;;;7.82;1.98;;;21.50;61.80;;;;;;9174838;19;20018;-65
2022/06/20 08:37:44;;;;;;;8.15;2.03;;;21.70;61.50;;;;;;9178275;19;20010;-65
2022/06/20 08:41:18;;;;;;;9.73;2.30;;;21.80;61.20;;;;;;9177008;19;20490;-68
2022/06/20 08:45:00;;;;;;;8.57;2.03;;;21.90;60.70;;;;;;9175296;19;20018;-69
2022/06/20 08:48:47;;;;;;;14.40;2.65;;;22.10;60.70;;;;;;9173485;19;20041;-69
2022/06/20 08:52:46;;;;;;;6.60;2.10;;;22.20;60.50;;;;;;9174807;19;20023;-67
2022/06/20 08:56:08;;;;;;;7.07;1.80;;;22.40;60.20;;;;;;9169512;19;20022;-69
2022/06/20 08:59:33;;;;;;;7.30;1.98;;;22.60;60.10;;;;;;9175209;19;20021;-68
2022/06/20 09:03:14;;;;;;;6.55;1.75;;;22.70;60.10;;;;;;9173515;19;20018;-68
2022/06/20 09:06:39;;;;;;;16.35;2.50;;;22.90;59.30;;;;;;9177184;19;20021;-67
2022/06/20 09:10:12;;;;;;;9.77;2.60;;;23.00;59.20;;;;;;9171837;19;20023;-70
2022/06/20 09:13:50;;;;;;;5.50;1.85;;;23.10;58.60;;;;;;9168329;19;20025;-69
2022/06/20 09:17:07;;;;;;;6.68;1.95;;;23.20;58.60;;;;;;9171264;19;20014;-66
2022/06/20 09:20:27;;;;;;;5.97;1.90;;;23.30;58.40;;;;;;9171024;19;20010;-68
2022/06/20 09:23:44;;;;;;;9.70;2.15;;;23.40;58.30;;;;;;9170934;19;20033;-68
2022/06/20 09:26:55;;;;;;;8.25;2.30;;;23.50;58.00;;;;;;9172622;19;20022;-67
2022/06/20 09:30:08;;;;;;;5.72;1.80;;;23.60;57.80;;;;;;9173174;19;20018;-67
2022/06/20 09:33:49;;;;;;;7.40;1.50;;;23.70;57.50;;;;;;9174070;19;20029;-68
2022/06/20 09:37:16;;;;;;;10.90;2.05;;;23.70;57.20;;;;;;9175901;19;20015;-68
2022/06/20 09:40:38;;;;;;;7.68;1.55;;;23.80;57.00;;;;;;9176595;19;20025;-68
2022/06/20 09:43:54;;;;;;;4.05;1.27;;;23.80;56.80;;;;;;9173827;19;20349;-70
2022/06/20 09:47:11;;;;;;;2.80;1.13;;;23.80;56.60;;;;;;9170208;19;20097;-67
2022/06/20 09:50:30;;;;;;;6.05;1.40;;;23.80;56.40;;;;;;9176211;19;20032;-68
2022/06/20 09:53:56;;;;;;;6.05;1.77;;;23.90;56.20;;;;;;9173931;19;20108;-68
2022/06/20 09:57:12;;;;;;;9.38;1.42;;;23.90;56.00;;;;;;9173075;19;20019;-69
2022/06/20 10:00:23;;;;;;;4.45;1.77;;;24.00;56.10;;;;;;9173468;19;20015;-69
2022/06/20 10:03:39;;;;;;;8.13;1.92;;;24.00;55.80;;;;;;9172843;19;20010;-67
2022/06/20 10:06:55;;;;;;;7.40;1.55;;;24.10;55.50;;;;;;9173690;19;20588;-68
2022/06/20 10:10:11;;;;;;;4.07;1.33;;;24.20;55.30;;;;;;9179190;19;20015;-67
2022/06/20 10:13:25;;;;;;;7.18;1.15;;;24.20;54.90;;;;;;9173181;19;20543;-67
2022/06/20 10:16:36;;;;;;;3.25;1.40;;;24.20;54.60;;;;;;9177466;19;20489;-68
2022/06/20 10:19:47;;;;;;;4.47;1.20;;;24.20;54.50;;;;;;9182417;19;20018;-68
2022/06/20 10:22:58;;;;;;;7.10;1.35;;;24.30;54.30;;;;;;9177597;19;20022;-67
2022/06/20 10:26:20;;;;;;;5.05;1.48;;;24.30;54.20;;;;;;9179013;19;20367;-69
2022/06/20 10:29:28;;;;;;;6.47;1.75;;;24.30;54.00;;;;;;9179947;19;20021;-68
2022/06/20 10:32:56;;;;;;;4.22;1.25;;;24.40;54.20;;;;;;9182780;19;20014;-67
2022/06/20 10:36:18;;;;;;;7.40;1.65;;;24.50;53.70;;;;;;9180977;19;20353;-67
2022/06/20 10:39:31;;;;;;;5.05;2.08;;;24.60;53.60;;;;;;9179781;19;20015;-68
2022/06/20 10:42:51;;;;;;;5.70;1.85;;;24.60;53.60;;;;;;9179869;19;20014;-69
2022/06/20 10:46:02;;;;;;;9.32;1.20;;;24.70;53.40;;;;;;9185689;19;20478;-69
2022/06/20 10:49:21;;;;;;;7.60;1.30;;;24.70;53.30;;;;;;9180744;19;20463;-69
2022/06/20 10:52:39;;;;;;;4.55;1.40;;;24.80;52.90;;;;;;9178083;19;20860;-68
2022/06/20 10:55:56;;;;;;;5.95;1.45;;;24.80;52.70;;;;;;9179783;19;20018;-67
2022/06/20 10:59:19;;;;;;;5.25;1.15;;;24.90;52.60;;;;;;9178804;19;20026;-67
2022/06/20 11:02:36;;;;;;;4.25;1.38;;;24.90;52.30;;;;;;9179294;19;20022;-67
2022/06/20 11:05:46;;;;;;;4.72;1.33;;;24.90;52.40;;;;;;9173766;19;20722;-68
2022/06/20 11:08:58;;;;;;;3.67;1.27;;;25.00;52.60;;;;;;9170330;19;20025;-68
2022/06/20 11:12:12;;;;;;;3.53;1.23;;;25.00;52.40;;;;;;9166034;19;20541;-70
2022/06/20 11:15:35;;;;;;;4.28;1.17;;;25.00;52.20;;;;;;9172289;19;20046;-69
2022/06/20 11:18:55;;;;;;;5.05;1.60;;;25.00;51.90;;;;;;9170470;19;20018;-68
2022/06/20 11:22:10;;;;;;;5.95;0.90;;;25.10;51.90;;;;;;9172232;19;20014;-69
2022/06/20 11:25:26;;;;;;;4.63;0.73;;;25.20;51.70;;;;;;9171553;19;20021;-70
2022/06/20 11:28:58;;;;;;;3.08;1.20;;;25.20;51.40;;;;;;9172209;19;20022;-70
2022/06/20 11:32:13;;;;;;;9.23;1.70;;;25.10;51.10;;;;;;9173538;19;20041;-70
2022/06/20 11:35:26;;;;;;;4.70;1.25;;;25.10;51.10;;;;;;9174206;19;20474;-70
2022/06/20 11:38:59;;;;;;;5.87;1.30;;;25.10;51.10;;;;;;9170872;19;20011;-69
2022/06/20 11:42:27;;;;;;;3.92;1.20;;;25.10;50.80;;;;;;9169637;19;20500;-69
2022/06/20 11:45:47;;;;;;;10.60;1.52;;;25.00;50.90;;;;;;9175013;19;20018;-69
2022/06/20 11:49:08;;;;;;;5.22;1.23;;;25.00;50.90;;;;;;9170180;19;20034;-72
2022/06/20 11:52:22;;;;;;;5.40;1.40;;;25.00;50.90;;;;;;9173406;19;20024;-70
2022/06/20 11:55:35;;;;;;;7.93;1.70;;;24.90;50.80;;;;;;9178246;19;20386;-69
2022/06/20 11:59:00;;;;;;;8.32;1.65;;;24.80;50.80;;;;;;9178898;19;20392;-71
2022/06/20 12:02:21;;;;;;;6.60;2.13;;;24.60;50.70;;;;;;9180450;19;20010;-71
2022/06/20 12:05:40;;;;;;;7.03;1.67;;;24.50;50.70;;;;;;9183684;19;20375;-70
2022/06/20 12:08:53;;;;;;;3.75;1.58;;;24.50;50.80;;;;;;9176198;19;20482;-71
2022/06/20 12:12:19;;;;;;;8.70;1.33;;;24.30;50.70;;;;;;9173111;19;20034;-72
2022/06/20 12:15:35;;;;;;;7.05;1.20;;;24.20;50.60;;;;;;9177070;19;20017;-71
2022/06/20 12:25:50;;;;;;;12.15;1.90;;;24.10;51.00;;;;;;9180533;19;20495;-71
2022/06/20 12:28:55;;;;;;;7.55;1.60;;;24.00;50.90;;;;;;9179949;19;20026;-69
2022/06/20 12:32:03;;;;;;;3.60;1.17;;;24.00;50.90;;;;;;9180816;19;20018;-72
2022/06/20 12:35:26;;;;;;;2.60;1.10;;;24.00;50.80;;;;;;9182130;19;20014;-69
2022/06/20 12:38:40;;;;;;;6.65;1.50;;;24.00;50.60;;;;;;9182543;19;20484;-69
2022/06/20 12:41:54;;;;;;;5.53;1.38;;;23.90;50.40;;;;;;9180165;19;20014;-70
2022/06/20 12:45:14;;;;;;;8.10;1.40;;;23.90;50.50;;;;;;9180216;19;20794;-68
2022/06/20 12:48:31;;;;;;;5.88;1.52;;;23.80;50.60;;;;;;9181445;19;20021;-71
2022/06/20 12:51:47;;;;;;;8.02;2.25;;;23.80;50.70;;;;;;9179902;19;20352;-69
2022/06/20 12:55:20;;;;;;;7.05;1.50;;;23.70;50.80;;;;;;9180024;19;20372;-70
2022/06/20 12:59:27;;;;;;;5.65;1.65;;;23.70;50.80;;;;;;9181717;19;20010;-68
2022/06/20 13:02:57;;;;;;;7.38;1.50;;;23.60;50.90;;;;;;9175679;19;20078;-71
2022/06/20 13:06:35;;;;;;;5.03;1.50;;;23.60;51.00;;;;;;9180625;19;20018;-69
2022/06/20 13:10:05;;;;;;;11.70;2.22;;;23.60;51.00;;;;;;9170941;19;20017;-70
2022/06/20 13:13:40;;;;;;;8.82;1.38;;;23.60;50.90;;;;;;9164467;19;20018;-69
2022/06/20 13:16:54;;;;;;;4.75;1.27;;;23.60;50.90;;;;;;9166653;19;20019;-71
2022/06/20 13:20:08;;;;;;;9.10;1.50;;;23.60;50.90;;;;;;9169372;19;20494;-68
2022/06/20 13:23:29;;;;;;;;;;;23.60;50.70;;;;;;9171028;19;20019;-70
2022/06/20 13:26:49;;;;;;;8.13;1.55;;;23.60;51.00;;;;;;9172779;19;19922;-70
2022/06/20 13:30:05;;;;;;;5.75;1.25;;;23.70;50.80;;;;;;9177467;19;20094;-70
2022/06/20 13:33:21;;;;;;;4.50;1.25;;;23.60;50.70;;;;;;9178851;19;20759;-73
2022/06/20 13:36:41;;;;;;;7.72;1.42;;;23.50;50.70;;;;;;9178478;19;20479;-68
2022/06/20 13:39:51;;;;;;;6.53;1.70;;;23.40;50.80;;;;;;9175534;19;20025;-72
2022/06/20 13:43:07;;;;;;;10.13;1.60;;;23.40;50.80;;;;;;9181017;19;20007;-72
2022/06/20 13:46:21;;;;;;;6.18;1.42;;;23.30;50.80;;;;;;9185981;19;20011;-69
2022/06/20 13:49:33;;;;;;;8.15;1.30;;;23.30;50.70;;;;;;9185522;19;20022;-71
2022/06/20 13:52:48;;;;;;;4.80;1.52;;;23.30;50.80;;;;;;9185973;19;20491;-70
2022/06/20 13:56:01;;;;;;;6.20;1.55;;;23.30;50.70;;;;;;9187989;19;20010;-68
2022/06/20 13:59:22;;;;;;;6.38;1.85;;;23.30;50.70;;;;;;9186738;19;20030;-68
2022/06/20 14:02:40;;;;;;;6.03;1.20;;;23.20;50.50;;;;;;9180872;19;20368;-67
2022/06/20 14:05:46;;;;;;;4.43;1.33;;;23.20;50.40;;;;;;9181589;19;21356;-66
2022/06/20 14:08:56;;;;;;;3.10;1.25;;;23.10;50.50;;;;;;9171431;19;20033;-67
2022/06/20 14:12:03;;;;;;;3.63;1.35;;;23.10;50.40;;;;;;9176817;19;20021;-69
2022/06/20 14:15:20;;;;;;;3.15;1.45;;;23.10;50.40;;;;;;9180025;19;20017;-68
2022/06/20 14:18:30;;;;;;;12.45;1.73;;;23.00;50.40;;;;;;9181395;19;20098;-71
2022/06/20 14:21:38;;;;;;;3.20;1.10;;;22.90;50.50;;;;;;9180547;19;20024;-67
2022/06/20 14:24:49;;;;;;;1.67;1.05;;;22.90;50.60;;;;;;9181868;19;20467;-67
2022/06/20 14:27:56;;;;;;;2.85;1.10;;;22.90;50.50;;;;;;9179423;19;20014;-70
2022/06/20 14:31:07;;;;;;;3.97;1.17;;;22.90;50.50;;;;;;9176589;19;20115;-69
2022/06/20 14:34:22;;;;;;;3.50;1.20;;;22.80;50.30;;;;;;9182826;19;20471;-68
2022/06/20 14:37:27;;;;;;;4.65;1.20;;;22.80;50.30;;;;;;9181450;19;20018;-70
2022/06/20 14:40:40;;;;;;;9.35;1.63;;;22.80;50.40;;;;;;9179469;19;20670;-67
2022/06/20 14:43:49;;;;;;;7.50;1.80;;;22.80;50.20;;;;;;9171326;19;20011;-67
2022/06/20 14:47:05;;;;;;;9.75;1.38;;;22.80;50.30;;;;;;9173982;19;20014;-66
2022/06/20 14:50:18;;;;;;;5.45;1.50;;;22.80;50.30;;;;;;9170778;19;20023;-70
2022/06/20 14:53:31;;;;;;;5.63;1.00;;;22.80;50.30;;;;;;9174352;19;20015;-68
2022/06/20 14:56:46;;;;;;;3.88;0.98;;;22.70;50.20;;;;;;9174038;19;20621;-71
2022/06/20 15:00:00;;;;;;;3.35;1.25;;;22.70;50.20;;;;;;9176596;19;20022;-70
2022/06/20 15:03:19;;;;;;;3.60;1.20;;;22.70;50.10;;;;;;9174937;19;20102;-69
2022/06/20 15:06:34;;;;;;;6.72;1.20;;;22.70;50.10;;;;;;9173546;19;20022;-71
2022/06/20 15:09:44;;;;;;;7.10;1.05;;;22.70;50.10;;;;;;9181978;19;20022;-70
2022/06/20 15:12:52;;;;;;;5.25;1.40;;;22.70;50.20;;;;;;9179267;19;20026;-71
2022/06/20 15:16:10;;;;;;;4.47;1.20;;;22.70;50.20;;;;;;9180226;19;20018;-70
2022/06/20 15:19:31;;;;;;;3.78;1.10;;;22.80;50.10;;;;;;9176643;19;20491;-70
2022/06/20 15:22:49;;;;;;;4.43;1.15;;;22.70;49.90;;;;;;9179146;19;20018;-72
2022/06/20 15:25:57;;;;;;;7.50;2.50;;;22.70;50.00;;;;;;9176445;19;20018;-72
2022/06/20 15:29:07;;;;;;;3.55;1.13;;;22.70;50.00;;;;;;9173093;19;20026;-70
2022/06/20 15:32:34;;;;;;;4.93;1.13;;;22.60;50.00;;;;;;9173588;19;20015;-72
2022/06/20 15:35:56;;;;;;;4.22;1.23;;;22.60;49.80;;;;;;9178359;19;20030;-65
2022/06/20 15:39:19;;;;;;;2.70;1.08;;;22.60;50.00;;;;;;9176259;19;20052;-69
2022/06/20 15:42:28;;;;;;;4.13;0.82;;;22.60;49.80;;;;;;9179441;19;20025;-71
2022/06/20 15:45:38;;;;;;;3.47;1.10;;;22.50;49.80;;;;;;9176424;19;20026;-69
2022/06/20 15:48:51;;;;;;;4.00;1.13;;;22.50;49.70;;;;;;9176094;19;20030;-67
2022/06/20 15:52:37;;;;;;;2.47;1.52;;;22.40;49.70;;;;;;9176543;19;20014;-68
2022/06/20 15:56:13;;;;;;;3.10;0.95;;;22.40;49.60;;;;;;9165295;19;20022;-68
2022/06/20 15:59:40;;;;;;;3.88;1.80;;;22.40;49.70;;;;;;9166302;19;20030;-68
2022/06/20 16:03:03;;;;;;;6.93;1.25;;;22.40;49.70;;;;;;9166520;19;20024;-69
2022/06/20 16:06:15;;;;;;;2.92;0.80;;;22.40;49.70;;;;;;9162104;19;20026;-68
2022/06/20 16:09:36;;;;;;;3.35;0.77;;;22.30;49.80;;;;;;9166466;19;20034;-67
2022/06/20 16:12:52;;;;;;;2.55;1.25;;;22.40;49.80;;;;;;9165022;19;20011;-66
2022/06/20 16:16:08;;;;;;;3.72;1.00;;;22.30;49.80;;;;;;9168722;19;20013;-67
2022/06/20 16:19:22;;;;;;;5.30;1.30;;;22.40;49.70;;;;;;9168981;19;20496;-68
2022/06/20 16:22:30;;;;;;;4.70;1.08;;;22.40;49.70;;;;;;9168680;19;20022;-68
2022/06/20 16:25:38;;;;;;;3.33;1.08;;;22.40;49.70;;;;;;9170252;19;20376;-68
2022/06/20 16:29:09;;;;;;;6.07;1.45;;;22.40;49.60;;;;;;9172966;19;20023;-66
2022/06/20 16:32:26;;;;;;;4.57;1.20;;;22.30;49.50;;;;;;9175145;19;20475;-68
2022/06/20 16:35:33;;;;;;;4.03;1.23;;;22.30;49.50;;;;;;9174266;19;20014;-67
2022/06/20 16:38:38;;;;;;;0.88;0.75;;;22.20;49.50;;;;;;9173638;19;20480;-66
2022/06/20 16:41:55;;;;;;;2.65;0.98;;;22.20;49.40;;;;;;9175117;19;20022;-67
2022/06/20 16:45:09;;;;;;;4.25;1.10;;;22.10;49.20;;;;;;9174393;19;20025;-66
2022/06/20 16:48:35;;;;;;;2.80;0.93;;;22.10;49.40;;;;;;9173955;19;20026;-67
2022/06/20 16:51:48;;;;;;;5.03;1.15;;;22.00;50.10;;;;;;9174412;19;20021;-68
2022/06/20 16:54:57;;;;;;;3.60;1.00;;;22.00;49.70;;;;;;9174248;19;20029;-66
2022/06/20 16:58:07;;;;;;;2.53;1.25;;;21.90;49.70;;;;;;9172821;19;20018;-67
2022/06/20 17:01:26;;;;;;;6.05;1.20;;;21.80;49.60;;;;;;9173806;19;20110;-66
2022/06/20 17:04:41;;;;;;;2.03;1.08;;;21.80;49.70;;;;;;9173769;19;20468;-67
2022/06/20 17:07:58;;;;;;;2.92;1.10;;;21.70;49.70;;;;;;9170984;19;20497;-68
2022/06/20 17:11:11;;;;;;;2.42;0.90;;;21.70;49.80;;;;;;9166891;19;20978;-68
2022/06/20 17:14:32;;;;;;;3.80;1.00;;;21.70;49.70;;;;;;9170333;19;20018;-67
2022/06/20 17:17:49;;;;;;;3.17;1.05;;;21.70;49.60;;;;;;9171430;19;20017;-68
2022/06/20 17:20:59;;;;;;;1.40;1.00;;;21.60;49.70;;;;;;9169645;19;20023;-68
2022/06/20 17:24:21;;;;;;;1.67;1.20;;;21.60;49.80;;;;;;9173829;19;20056;-68
2022/06/20 17:27:34;;;;;;;4.88;1.20;;;21.50;49.80;;;;;;9170052;19;20014;-68